sensor_id;sensor_type;location;lat;lon;timestamp;noise_LAeq;noise_LA_min;noise_LA_max;noise_LA01;noise_LA95
49215;Laerm;45943;53.148;8.204;2023-03-14T00:02:10;42.75;39.41;45.57;;
49215;Laerm;45943;53.148;8.204;2023-03-14T00:04:36;42.52;39.41;47.74;;
49215;Laerm;45943;53.148;8.204;2023-03-14T00:07:03;42.18;38.65;45.71;;
49215;Laerm;45943;53.148;8.204;2023-03-14T00:09:29;42.17;39.27;45.83;;
49215;Laerm;45943;53.148;8.204;2023-03-14T00:11:56;41.89;38.65;46.02;;
49215;Laerm;45943;53.148;8.204;2023-03-14T00:14:22;41.48;37.29;44.50;;
49215;Laerm;45943;53.148;8.204;2023-03-14T00:16:48;41.99;37.05;45.61;;
49215;Laerm;45943;53.148;8.204;2023-03-14T00:19:14;42.36;39.55;45.40;;
49215;Laerm;45943;53.148;8.204;2023-03-14T00:21:40;42.58;39.12;46.02;;
49215;Laerm;45943;53.148;8.204;2023-03-14T00:24:07;43.29;40.30;46.20;;
49215;Laerm;45943;53.148;8.204;2023-03-14T00:26:33;43.70;40.18;50.83;;
49215;Laerm;45943;53.148;8.204;2023-03-14T00:28:59;46.78;38.78;66.85;;
49215;Laerm;45943;53.148;8.204;2023-03-14T00:31:25;49.52;38.30;72.91;;
49215;Laerm;45943;53.148;8.204;2023-03-14T00:33:52;41.94;37.51;56.73;;
49215;Laerm;45943;53.148;8.204;2023-03-14T00:36:19;41.97;38.81;49.08;;
49215;Laerm;45943;53.148;8.204;2023-03-14T00:38:48;41.81;38.12;47.19;;
49215;Laerm;45943;53.148;8.204;2023-03-14T00:41:18;42.74;37.72;61.21;;
49215;Laerm;45943;53.148;8.204;2023-03-14T00:43:45;42.05;36.54;46.40;;
49215;Laerm;45943;53.148;8.204;2023-03-14T00:46:12;42.78;39.12;48.43;;
49215;Laerm;45943;53.148;8.204;2023-03-14T00:48:38;41.98;37.37;45.26;;
49215;Laerm;45943;53.148;8.204;2023-03-14T00:51:05;41.99;37.92;45.18;;
49215;Laerm;45943;53.148;8.204;2023-03-14T00:53:35;41.72;37.29;44.23;;
49215;Laerm;45943;53.148;8.204;2023-03-14T00:56:06;41.11;36.54;44.83;;
49215;Laerm;45943;53.148;8.204;2023-03-14T00:58:33;41.92;37.29;47.12;;
49215;Laerm;45943;53.148;8.204;2023-03-14T01:00:59;43.91;40.06;56.40;;
49215;Laerm;45943;53.148;8.204;2023-03-14T01:03:25;49.61;39.68;69.62;;
49215;Laerm;45943;53.148;8.204;2023-03-14T01:05:51;42.38;39.41;46.54;;
49215;Laerm;45943;53.148;8.204;2023-03-14T01:08:17;43.07;39.94;46.17;;
49215;Laerm;45943;53.148;8.204;2023-03-14T01:10:43;42.92;39.12;45.80;;
49215;Laerm;45943;53.148;8.204;2023-03-14T01:13:09;41.51;38.30;45.33;;
49215;Laerm;45943;53.148;8.204;2023-03-14T01:15:36;41.80;37.72;46.65;;
49215;Laerm;45943;53.148;8.204;2023-03-14T01:18:03;42.09;38.47;45.36;;
49215;Laerm;45943;53.148;8.204;2023-03-14T01:20:29;41.74;38.48;44.99;;
49215;Laerm;45943;53.148;8.204;2023-03-14T01:22:55;41.12;37.05;44.91;;
49215;Laerm;45943;53.148;8.204;2023-03-14T01:25:21;40.50;37.29;46.08;;
49215;Laerm;45943;53.148;8.204;2023-03-14T01:27:47;40.70;36.54;45.14;;
49215;Laerm;45943;53.148;8.204;2023-03-14T01:30:14;48.19;37.05;68.16;;
49215;Laerm;45943;53.148;8.204;2023-03-14T01:32:40;42.87;37.72;57.17;;
49215;Laerm;45943;53.148;8.204;2023-03-14T01:35:06;40.88;36.80;44.14;;
49215;Laerm;45943;53.148;8.204;2023-03-14T01:37:32;41.92;38.48;45.33;;
49215;Laerm;45943;53.148;8.204;2023-03-14T01:39:58;42.57;38.48;46.46;;
49215;Laerm;45943;53.148;8.204;2023-03-14T01:42:24;42.23;38.48;46.46;;
49215;Laerm;45943;53.148;8.204;2023-03-14T01:44:58;42.34;38.30;45.94;;
49215;Laerm;45943;53.148;8.204;2023-03-14T01:47:26;42.91;39.55;47.64;;
49215;Laerm;45943;53.148;8.204;2023-03-14T01:50:02;42.12;38.62;45.77;;
49215;Laerm;45943;53.148;8.204;2023-03-14T01:52:34;41.39;37.37;44.87;;
49215;Laerm;45943;53.148;8.204;2023-03-14T01:55:05;42.56;38.81;47.08;;
49215;Laerm;45943;53.148;8.204;2023-03-14T01:57:37;42.54;38.65;48.56;;
49215;Laerm;45943;53.148;8.204;2023-03-14T02:00:20;63.09;39.94;77.56;;
49215;Laerm;45943;53.148;8.204;2023-03-14T02:03:10;43.18;39.68;46.83;;
49215;Laerm;45943;53.148;8.204;2023-03-14T02:05:36;45.55;40.73;51.93;;
49215;Laerm;45943;53.148;8.204;2023-03-14T02:08:06;42.49;37.51;47.42;;
49215;Laerm;45943;53.148;8.204;2023-03-14T02:10:39;43.22;39.12;47.03;;
49215;Laerm;45943;53.148;8.204;2023-03-14T02:13:06;42.70;38.47;47.15;;
49215;Laerm;45943;53.148;8.204;2023-03-14T02:15:33;47.14;39.27;66.28;;
49215;Laerm;45943;53.148;8.204;2023-03-14T02:17:59;43.13;39.94;49.78;;
49215;Laerm;45943;53.148;8.204;2023-03-14T02:20:51;42.79;38.30;54.91;;
49215;Laerm;45943;53.148;8.204;2023-03-14T02:23:30;42.54;37.92;47.31;;
49215;Laerm;45943;53.148;8.204;2023-03-14T02:26:10;44.40;41.40;53.72;;
49215;Laerm;45943;53.148;8.204;2023-03-14T02:28:37;44.41;39.68;58.95;;
49215;Laerm;45943;53.148;8.204;2023-03-14T02:31:03;44.47;39.12;59.89;;
49215;Laerm;45943;53.148;8.204;2023-03-14T02:33:30;44.45;38.97;59.89;;
49215;Laerm;45943;53.148;8.204;2023-03-14T02:35:59;45.53;38.81;59.50;;
49215;Laerm;45943;53.148;8.204;2023-03-14T02:38:46;49.45;41.90;65.23;;
49215;Laerm;45943;53.148;8.204;2023-03-14T02:41:13;49.79;43.99;63.86;;
49215;Laerm;45943;53.148;8.204;2023-03-14T02:43:39;60.70;44.37;72.10;;
49215;Laerm;45943;53.148;8.204;2023-03-14T02:46:05;52.82;41.49;68.28;;
49215;Laerm;45943;53.148;8.204;2023-03-14T02:48:36;49.85;41.82;69.00;;
49215;Laerm;45943;53.148;8.204;2023-03-14T02:51:05;60.72;42.13;74.86;;
49215;Laerm;45943;53.148;8.204;2023-03-14T02:53:34;55.75;43.48;65.77;;
49215;Laerm;45943;53.148;8.204;2023-03-14T02:56:00;50.39;43.07;68.16;;
49215;Laerm;45943;53.148;8.204;2023-03-14T02:58:27;46.36;41.98;60.92;;
49215;Laerm;45943;53.148;8.204;2023-03-14T03:00:53;49.00;42.60;65.90;;
49215;Laerm;45943;53.148;8.204;2023-03-14T03:03:20;46.42;42.49;59.79;;
49215;Laerm;45943;53.148;8.204;2023-03-14T03:05:50;48.10;42.82;62.29;;
49215;Laerm;45943;53.148;8.204;2023-03-14T03:08:21;55.87;45.64;77.49;;
49215;Laerm;45943;53.148;8.204;2023-03-14T03:10:47;50.30;44.32;64.13;;
49215;Laerm;45943;53.148;8.204;2023-03-14T03:13:13;49.45;44.54;65.94;;
49215;Laerm;45943;53.148;8.204;2023-03-14T03:15:39;48.15;43.58;63.73;;
49215;Laerm;45943;53.148;8.204;2023-03-14T03:18:06;48.57;43.64;66.62;;
49215;Laerm;45943;53.148;8.204;2023-03-14T03:20:32;57.78;45.93;72.45;;
49215;Laerm;45943;53.148;8.204;2023-03-14T03:22:59;54.26;43.48;72.51;;
49215;Laerm;45943;53.148;8.204;2023-03-14T03:25:25;46.87;42.76;61.47;;
49215;Laerm;45943;53.148;8.204;2023-03-14T03:27:52;48.26;43.48;61.47;;
49215;Laerm;45943;53.148;8.204;2023-03-14T03:30:18;47.24;43.36;60.75;;
49215;Laerm;45943;53.148;8.204;2023-03-14T03:32:44;47.50;43.01;65.26;;
49215;Laerm;45943;53.148;8.204;2023-03-14T03:35:10;50.15;42.56;69.41;;
49215;Laerm;45943;53.148;8.204;2023-03-14T03:37:36;51.71;42.28;72.53;;
49215;Laerm;45943;53.148;8.204;2023-03-14T03:40:03;46.85;41.66;60.71;;
49215;Laerm;45943;53.148;8.204;2023-03-14T03:42:33;46.53;42.06;59.82;;
49215;Laerm;45943;53.148;8.204;2023-03-14T03:45:00;46.49;42.49;59.54;;
49215;Laerm;45943;53.148;8.204;2023-03-14T03:47:27;46.46;41.49;60.79;;
49215;Laerm;45943;53.148;8.204;2023-03-14T03:49:53;45.99;41.82;63.12;;
49215;Laerm;45943;53.148;8.204;2023-03-14T03:52:19;47.66;43.25;58.99;;
49215;Laerm;45943;53.148;8.204;2023-03-14T03:54:46;47.24;43.01;59.99;;
49215;Laerm;45943;53.148;8.204;2023-03-14T03:57:12;46.80;42.89;58.81;;
49215;Laerm;45943;53.148;8.204;2023-03-14T03:59:38;47.90;43.42;59.64;;
49215;Laerm;45943;53.148;8.204;2023-03-14T04:02:05;47.36;43.19;58.77;;
49215;Laerm;45943;53.148;8.204;2023-03-14T04:04:31;51.93;42.89;73.04;;
49215;Laerm;45943;53.148;8.204;2023-03-14T04:06:57;51.91;43.25;69.25;;
49215;Laerm;45943;53.148;8.204;2023-03-14T04:09:23;47.54;43.79;59.86;;
49215;Laerm;45943;53.148;8.204;2023-03-14T04:11:49;53.28;44.18;78.87;;
49215;Laerm;45943;53.148;8.204;2023-03-14T04:14:15;50.99;43.53;74.21;;
49215;Laerm;45943;53.148;8.204;2023-03-14T04:16:41;48.33;43.31;63.64;;
49215;Laerm;45943;53.148;8.204;2023-03-14T04:19:07;49.88;43.94;66.07;;
49215;Laerm;45943;53.148;8.204;2023-03-14T04:21:33;55.56;44.28;70.89;;
49215;Laerm;45943;53.148;8.204;2023-03-14T04:23:59;48.57;44.63;62.54;;
49215;Laerm;45943;53.148;8.204;2023-03-14T04:26:25;49.85;43.36;65.29;;
49215;Laerm;45943;53.148;8.204;2023-03-14T04:28:51;48.48;44.23;60.63;;
49215;Laerm;45943;53.148;8.204;2023-03-14T04:31:20;48.82;44.37;62.25;;
49215;Laerm;45943;53.148;8.204;2023-03-14T04:33:46;54.88;44.67;71.19;;
49215;Laerm;45943;53.148;8.204;2023-03-14T04:36:13;52.30;44.95;67.65;;
49215;Laerm;45943;53.148;8.204;2023-03-14T04:38:39;52.67;44.75;70.61;;
49215;Laerm;45943;53.148;8.204;2023-03-14T04:41:06;57.77;44.63;71.15;;
49215;Laerm;45943;53.148;8.204;2023-03-14T04:43:32;51.81;44.75;69.28;;
49215;Laerm;45943;53.148;8.204;2023-03-14T04:45:59;50.10;45.71;63.51;;
49215;Laerm;45943;53.148;8.204;2023-03-14T04:48:28;52.71;45.40;73.03;;
49215;Laerm;45943;53.148;8.204;2023-03-14T04:50:54;51.07;45.03;69.11;;
49215;Laerm;45943;53.148;8.204;2023-03-14T04:53:20;53.64;45.11;70.44;;
49215;Laerm;45943;53.148;8.204;2023-03-14T04:55:51;50.12;44.54;59.09;;
49215;Laerm;45943;53.148;8.204;2023-03-14T04:58:18;48.71;45.25;60.36;;
49215;Laerm;45943;53.148;8.204;2023-03-14T05:00:45;58.43;44.71;81.42;;
49215;Laerm;45943;53.148;8.204;2023-03-14T05:03:11;59.59;44.23;80.55;;
49215;Laerm;45943;53.148;8.204;2023-03-14T05:05:37;52.47;45.36;70.85;;
49215;Laerm;45943;53.148;8.204;2023-03-14T05:08:03;52.45;45.18;76.52;;
49215;Laerm;45943;53.148;8.204;2023-03-14T05:10:29;56.54;45.11;76.68;;
49215;Laerm;45943;53.148;8.204;2023-03-14T05:12:55;54.07;44.71;67.09;;
49215;Laerm;45943;53.148;8.204;2023-03-14T05:15:21;55.01;45.99;72.87;;
49215;Laerm;45943;53.148;8.204;2023-03-14T05:17:46;52.48;45.93;72.12;;
49215;Laerm;45943;53.148;8.204;2023-03-14T05:20:14;57.95;45.71;75.56;;
49215;Laerm;45943;53.148;8.204;2023-03-14T05:22:41;55.66;45.67;72.34;;
49215;Laerm;45943;53.148;8.204;2023-03-14T05:25:08;50.77;45.25;64.24;;
49215;Laerm;45943;53.148;8.204;2023-03-14T05:27:34;55.88;45.50;69.94;;
49215;Laerm;45943;53.148;8.204;2023-03-14T05:30:02;49.67;45.61;60.02;;
49215;Laerm;45943;53.148;8.204;2023-03-14T05:32:28;59.26;45.18;78.02;;
49215;Laerm;45943;53.148;8.204;2023-03-14T05:34:54;51.32;45.18;70.11;;
49215;Laerm;45943;53.148;8.204;2023-03-14T05:37:24;54.33;45.83;70.97;;
49215;Laerm;45943;53.148;8.204;2023-03-14T05:39:50;57.73;46.57;71.11;;
49215;Laerm;45943;53.148;8.204;2023-03-14T05:42:16;54.70;46.20;70.81;;
49215;Laerm;45943;53.148;8.204;2023-03-14T05:44:42;60.19;47.05;80.84;;
49215;Laerm;45943;53.148;8.204;2023-03-14T05:47:08;51.40;46.49;64.39;;
49215;Laerm;45943;53.148;8.204;2023-03-14T05:49:34;53.78;46.51;67.36;;
49215;Laerm;45943;53.148;8.204;2023-03-14T05:52:00;53.78;46.88;69.38;;
49215;Laerm;45943;53.148;8.204;2023-03-14T05:54:26;55.33;46.40;68.92;;
49215;Laerm;45943;53.148;8.204;2023-03-14T05:56:52;55.82;46.23;72.53;;
49215;Laerm;45943;53.148;8.204;2023-03-14T05:59:18;60.24;46.54;75.33;;
49215;Laerm;45943;53.148;8.204;2023-03-14T06:01:44;55.67;46.20;73.83;;
49215;Laerm;45943;53.148;8.204;2023-03-14T06:04:10;56.19;47.40;70.39;;
49215;Laerm;45943;53.148;8.204;2023-03-14T06:06:36;59.97;46.67;74.43;;
49215;Laerm;45943;53.148;8.204;2023-03-14T06:09:02;55.76;47.05;71.30;;
49215;Laerm;45943;53.148;8.204;2023-03-14T06:11:28;55.96;45.80;71.28;;
49215;Laerm;45943;53.148;8.204;2023-03-14T06:13:54;56.86;46.80;73.29;;
49215;Laerm;45943;53.148;8.204;2023-03-14T06:16:20;57.12;47.35;71.05;;
49215;Laerm;45943;53.148;8.204;2023-03-14T06:18:46;58.37;47.57;71.44;;
49215;Laerm;45943;53.148;8.204;2023-03-14T06:21:15;56.13;46.40;72.45;;
49215;Laerm;45943;53.148;8.204;2023-03-14T06:23:41;58.49;47.24;74.41;;
49215;Laerm;45943;53.148;8.204;2023-03-14T06:26:07;55.33;46.85;69.18;;
49215;Laerm;45943;53.148;8.204;2023-03-14T06:28:33;57.63;46.83;71.00;;
49215;Laerm;45943;53.148;8.204;2023-03-14T06:30:59;58.70;47.49;75.49;;
49215;Laerm;45943;53.148;8.204;2023-03-14T06:33:25;58.65;46.80;71.90;;
49215;Laerm;45943;53.148;8.204;2023-03-14T06:35:51;55.93;47.36;69.43;;
49215;Laerm;45943;53.148;8.204;2023-03-14T06:38:17;58.87;46.68;73.15;;
49215;Laerm;45943;53.148;8.204;2023-03-14T06:40:43;63.05;46.98;80.03;;
49215;Laerm;45943;53.148;8.204;2023-03-14T06:43:09;58.17;47.36;73.04;;
49215;Laerm;45943;53.148;8.204;2023-03-14T06:45:35;56.31;47.10;69.76;;
49215;Laerm;45943;53.148;8.204;2023-03-14T06:48:01;57.01;47.47;68.54;;
49215;Laerm;45943;53.148;8.204;2023-03-14T06:50:27;60.19;49.62;72.35;;
49215;Laerm;45943;53.148;8.204;2023-03-14T06:52:53;59.26;49.36;74.96;;
49215;Laerm;45943;53.148;8.204;2023-03-14T06:55:19;60.60;49.23;74.10;;
49215;Laerm;45943;53.148;8.204;2023-03-14T06:57:46;59.28;51.83;73.72;;
49215;Laerm;45943;53.148;8.204;2023-03-14T07:00:13;58.86;49.02;71.78;;
49215;Laerm;45943;53.148;8.204;2023-03-14T07:02:39;60.06;49.47;72.43;;
49215;Laerm;45943;53.148;8.204;2023-03-14T07:05:06;57.73;47.60;72.97;;
49215;Laerm;45943;53.148;8.204;2023-03-14T07:07:32;58.98;49.59;69.00;;
49215;Laerm;45943;53.148;8.204;2023-03-14T07:09:58;59.20;48.62;70.54;;
49215;Laerm;45943;53.148;8.204;2023-03-14T07:12:24;60.22;49.67;72.17;;
49215;Laerm;45943;53.148;8.204;2023-03-14T07:14:50;59.25;50.04;70.78;;
49215;Laerm;45943;53.148;8.204;2023-03-14T07:17:16;58.70;50.25;72.95;;
49215;Laerm;45943;53.148;8.204;2023-03-14T07:19:42;60.32;47.15;72.77;;
49215;Laerm;45943;53.148;8.204;2023-03-14T07:22:08;58.58;48.53;71.25;;
49215;Laerm;45943;53.148;8.204;2023-03-14T07:24:34;58.48;50.62;71.29;;
49215;Laerm;45943;53.148;8.204;2023-03-14T07:27:00;60.73;50.20;75.61;;
49215;Laerm;45943;53.148;8.204;2023-03-14T07:29:26;59.21;50.10;71.23;;
49215;Laerm;45943;53.148;8.204;2023-03-14T07:31:52;60.95;49.54;73.46;;
49215;Laerm;45943;53.148;8.204;2023-03-14T07:34:18;57.76;47.72;70.02;;
49215;Laerm;45943;53.148;8.204;2023-03-14T07:36:45;56.84;48.10;73.11;;
49215;Laerm;45943;53.148;8.204;2023-03-14T07:39:11;59.62;49.26;71.94;;
49215;Laerm;45943;53.148;8.204;2023-03-14T07:41:37;61.58;49.81;75.95;;
49215;Laerm;45943;53.148;8.204;2023-03-14T07:44:03;60.34;50.83;70.43;;
49215;Laerm;45943;53.148;8.204;2023-03-14T07:46:28;59.42;49.26;76.27;;
49215;Laerm;45943;53.148;8.204;2023-03-14T07:48:54;59.26;49.34;70.75;;
49215;Laerm;45943;53.148;8.204;2023-03-14T07:51:20;58.31;49.34;74.58;;
49215;Laerm;45943;53.148;8.204;2023-03-14T07:53:46;58.87;49.30;70.51;;
49215;Laerm;45943;53.148;8.204;2023-03-14T07:56:12;56.51;49.79;68.04;;
49215;Laerm;45943;53.148;8.204;2023-03-14T07:58:38;58.09;48.55;69.79;;
49215;Laerm;45943;53.148;8.204;2023-03-14T08:01:05;57.41;49.92;69.26;;
49215;Laerm;45943;53.148;8.204;2023-03-14T08:03:31;58.10;49.60;72.45;;
49215;Laerm;45943;53.148;8.204;2023-03-14T08:05:56;57.55;48.55;70.43;;
49215;Laerm;45943;53.148;8.204;2023-03-14T08:08:22;58.29;49.33;71.54;;
49215;Laerm;45943;53.148;8.204;2023-03-14T08:10:48;55.25;50.26;69.03;;
49215;Laerm;45943;53.148;8.204;2023-03-14T08:13:14;60.51;47.00;73.95;;
49215;Laerm;45943;53.148;8.204;2023-03-14T08:15:41;60.63;46.95;75.96;;
49215;Laerm;45943;53.148;8.204;2023-03-14T08:18:07;58.44;47.49;73.49;;
49215;Laerm;45943;53.148;8.204;2023-03-14T08:20:33;61.95;48.99;72.97;;
49215;Laerm;45943;53.148;8.204;2023-03-14T08:23:00;62.83;48.46;78.57;;
49215;Laerm;45943;53.148;8.204;2023-03-14T08:25:27;58.18;47.86;69.82;;
49215;Laerm;45943;53.148;8.204;2023-03-14T08:27:54;57.17;46.48;71.70;;
49215;Laerm;45943;53.148;8.204;2023-03-14T08:30:21;56.67;46.54;70.58;;
49215;Laerm;45943;53.148;8.204;2023-03-14T08:32:47;57.54;46.90;71.03;;
49215;Laerm;45943;53.148;8.204;2023-03-14T08:35:14;56.84;47.64;72.19;;
49215;Laerm;45943;53.148;8.204;2023-03-14T08:37:40;59.09;49.47;74.03;;
49215;Laerm;45943;53.148;8.204;2023-03-14T08:40:07;60.21;48.89;75.73;;
49215;Laerm;45943;53.148;8.204;2023-03-14T08:42:34;56.67;47.57;70.00;;
49215;Laerm;45943;53.148;8.204;2023-03-14T08:45:00;57.51;47.08;70.63;;
49215;Laerm;45943;53.148;8.204;2023-03-14T08:47:26;56.26;46.67;69.28;;
49215;Laerm;45943;53.148;8.204;2023-03-14T08:49:53;55.95;45.61;68.93;;
49215;Laerm;45943;53.148;8.204;2023-03-14T08:52:19;55.91;45.96;74.43;;
49215;Laerm;45943;53.148;8.204;2023-03-14T08:54:46;58.69;46.95;73.18;;
49215;Laerm;45943;53.148;8.204;2023-03-14T08:57:12;57.45;48.68;70.42;;
49215;Laerm;45943;53.148;8.204;2023-03-14T08:59:38;58.32;48.00;71.04;;
49215;Laerm;45943;53.148;8.204;2023-03-14T09:02:04;59.29;48.73;72.16;;
49215;Laerm;45943;53.148;8.204;2023-03-14T09:04:30;58.14;49.07;71.97;;
49215;Laerm;45943;53.148;8.204;2023-03-14T09:06:56;58.66;50.57;74.81;;
49215;Laerm;45943;53.148;8.204;2023-03-14T09:09:26;59.57;51.43;71.40;;
49215;Laerm;45943;53.148;8.204;2023-03-14T09:11:53;59.93;51.10;77.18;;
49215;Laerm;45943;53.148;8.204;2023-03-14T09:14:19;56.02;49.70;76.83;;
49215;Laerm;45943;53.148;8.204;2023-03-14T09:16:45;56.47;48.58;71.80;;
49215;Laerm;45943;53.148;8.204;2023-03-14T09:19:11;59.53;49.17;73.27;;
49215;Laerm;45943;53.148;8.204;2023-03-14T09:21:37;60.45;48.06;74.95;;
49215;Laerm;45943;53.148;8.204;2023-03-14T09:24:04;59.76;50.41;77.81;;
49215;Laerm;45943;53.148;8.204;2023-03-14T09:26:31;58.76;49.43;80.78;;
49215;Laerm;45943;53.148;8.204;2023-03-14T09:28:57;59.68;49.78;75.17;;
49215;Laerm;45943;53.148;8.204;2023-03-14T09:31:23;60.54;49.58;75.16;;
49215;Laerm;45943;53.148;8.204;2023-03-14T09:33:49;60.40;47.64;72.75;;
49215;Laerm;45943;53.148;8.204;2023-03-14T09:36:15;60.55;47.72;76.18;;
49215;Laerm;45943;53.148;8.204;2023-03-14T09:38:41;60.44;50.41;73.90;;
49215;Laerm;45943;53.148;8.204;2023-03-14T09:41:14;60.26;49.68;71.55;;
49215;Laerm;45943;53.148;8.204;2023-03-14T09:43:42;60.86;51.26;71.36;;
49215;Laerm;45943;53.148;8.204;2023-03-14T09:46:10;58.68;49.87;72.39;;
49215;Laerm;45943;53.148;8.204;2023-03-14T09:48:37;59.11;47.68;76.38;;
49215;Laerm;45943;53.148;8.204;2023-03-14T09:51:07;58.28;46.90;70.13;;
49215;Laerm;45943;53.148;8.204;2023-03-14T09:53:40;57.69;48.15;69.77;;
49215;Laerm;45943;53.148;8.204;2023-03-14T09:56:13;58.19;47.24;77.86;;
49215;Laerm;45943;53.148;8.204;2023-03-14T09:58:44;59.09;47.88;71.16;;
49215;Laerm;45943;53.148;8.204;2023-03-14T10:01:15;56.89;48.63;68.04;;
49215;Laerm;45943;53.148;8.204;2023-03-14T10:03:44;64.57;51.07;78.06;;
49215;Laerm;45943;53.148;8.204;2023-03-14T10:06:11;57.73;47.68;71.75;;
49215;Laerm;45943;53.148;8.204;2023-03-14T10:08:42;58.53;48.12;68.74;;
49215;Laerm;45943;53.148;8.204;2023-03-14T10:11:15;60.24;46.80;75.55;;
49215;Laerm;45943;53.148;8.204;2023-03-14T10:16:14;58.13;48.37;70.98;;
49215;Laerm;45943;53.148;8.204;2023-03-14T10:18:44;58.91;48.12;74.08;;
49215;Laerm;45943;53.148;8.204;2023-03-14T10:21:32;60.76;51.20;75.50;;
49215;Laerm;45943;53.148;8.204;2023-03-14T10:24:26;60.49;51.17;73.09;;
49215;Laerm;45943;53.148;8.204;2023-03-14T10:26:54;59.67;48.27;80.79;;
49215;Laerm;45943;53.148;8.204;2023-03-14T10:29:21;56.65;45.50;70.26;;
49215;Laerm;45943;53.148;8.204;2023-03-14T10:34:21;58.76;47.94;74.27;;
49215;Laerm;45943;53.148;8.204;2023-03-14T10:36:52;58.81;48.89;70.60;;
49215;Laerm;45943;53.148;8.204;2023-03-14T10:39:26;59.63;48.23;72.96;;
49215;Laerm;45943;53.148;8.204;2023-03-14T10:41:55;59.17;50.99;72.60;;
49215;Laerm;45943;53.148;8.204;2023-03-14T10:44:28;61.94;53.39;79.66;;
49215;Laerm;45943;53.148;8.204;2023-03-14T10:47:02;64.03;51.66;74.06;;
49215;Laerm;45943;53.148;8.204;2023-03-14T10:49:36;59.67;49.09;74.47;;
49215;Laerm;45943;53.148;8.204;2023-03-14T10:52:26;59.09;48.85;76.24;;
49215;Laerm;45943;53.148;8.204;2023-03-14T10:55:09;57.19;46.73;67.65;;
49215;Laerm;45943;53.148;8.204;2023-03-14T10:57:40;58.39;47.19;76.37;;
49215;Laerm;45943;53.148;8.204;2023-03-14T11:00:18;56.82;46.98;64.84;;
49215;Laerm;45943;53.148;8.204;2023-03-14T11:08:06;60.17;49.84;77.60;;
49215;Laerm;45943;53.148;8.204;2023-03-14T11:10:36;56.13;46.51;70.22;;
49215;Laerm;45943;53.148;8.204;2023-03-14T11:21:24;58.18;47.00;76.90;;
49215;Laerm;45943;53.148;8.204;2023-03-14T11:26:54;57.73;49.83;74.52;;
49215;Laerm;45943;53.148;8.204;2023-03-14T11:32:41;57.60;47.82;71.96;;
49215;Laerm;45943;53.148;8.204;2023-03-14T11:35:19;56.98;46.51;68.53;;
49215;Laerm;45943;53.148;8.204;2023-03-14T11:37:54;59.96;50.23;78.74;;
49215;Laerm;45943;53.148;8.204;2023-03-14T11:40:23;60.09;47.78;75.08;;
49215;Laerm;45943;53.148;8.204;2023-03-14T11:42:59;58.04;50.59;75.02;;
49215;Laerm;45943;53.148;8.204;2023-03-14T11:45:35;55.36;45.80;68.89;;
49215;Laerm;45943;53.148;8.204;2023-03-14T11:48:59;52.98;45.57;72.69;;
49215;Laerm;45943;53.148;8.204;2023-03-14T11:51:02;54.74;45.64;71.60;;
49215;Laerm;45943;53.148;8.204;2023-03-14T11:53:41;55.08;45.74;68.13;;
49215;Laerm;45943;53.148;8.204;2023-03-14T11:56:18;55.39;45.96;68.00;;
49215;Laerm;45943;53.148;8.204;2023-03-14T11:58:55;55.81;45.43;70.37;;
49215;Laerm;45943;53.148;8.204;2023-03-14T12:01:31;54.85;45.61;69.46;;
49215;Laerm;45943;53.148;8.204;2023-03-14T12:04:10;55.11;45.61;69.67;;
49215;Laerm;45943;53.148;8.204;2023-03-14T12:06:49;55.52;46.40;70.44;;
49215;Laerm;45943;53.148;8.204;2023-03-14T12:09:16;55.61;45.47;69.25;;
49215;Laerm;45943;53.148;8.204;2023-03-14T12:11:52;55.99;46.51;71.72;;
49215;Laerm;45943;53.148;8.204;2023-03-14T12:14:33;55.95;45.77;69.07;;
49215;Laerm;45943;53.148;8.204;2023-03-14T12:19:43;54.85;46.23;70.85;;
49215;Laerm;45943;53.148;8.204;2023-03-14T12:24:49;55.74;45.77;69.63;;
49215;Laerm;45943;53.148;8.204;2023-03-14T12:35:38;55.52;45.87;70.56;;
49215;Laerm;45943;53.148;8.204;2023-03-14T12:38:10;57.67;45.99;72.14;;
49215;Laerm;45943;53.148;8.204;2023-03-14T12:40:54;57.53;46.90;73.58;;
49215;Laerm;45943;53.148;8.204;2023-03-14T12:43:28;58.76;48.88;71.61;;
49215;Laerm;45943;53.148;8.204;2023-03-14T12:48:47;58.61;51.86;68.89;;
49215;Laerm;45943;53.148;8.204;2023-03-14T12:51:16;56.79;46.20;68.97;;
49215;Laerm;45943;53.148;8.204;2023-03-14T12:56:43;56.97;49.62;69.74;;
49215;Laerm;45943;53.148;8.204;2023-03-14T13:02:17;58.18;51.52;70.93;;
49215;Laerm;45943;53.148;8.204;2023-03-14T13:04:48;57.03;48.60;69.79;;
49215;Laerm;45943;53.148;8.204;2023-03-14T13:07:31;58.67;50.92;76.17;;
49215;Laerm;45943;53.148;8.204;2023-03-14T13:12:42;58.38;49.51;72.70;;
49215;Laerm;45943;53.148;8.204;2023-03-14T13:17:51;60.05;49.76;81.83;;
49215;Laerm;45943;53.148;8.204;2023-03-14T13:20:27;60.33;50.01;74.22;;
49215;Laerm;45943;53.148;8.204;2023-03-14T13:22:54;56.59;46.32;74.14;;
49215;Laerm;45943;53.148;8.204;2023-03-14T13:25:21;56.44;46.46;75.44;;
49215;Laerm;45943;53.148;8.204;2023-03-14T13:27:52;56.29;46.83;64.88;;
49215;Laerm;45943;53.148;8.204;2023-03-14T13:30:24;54.51;46.35;71.37;;
49215;Laerm;45943;53.148;8.204;2023-03-14T13:32:53;54.93;46.70;71.66;;
49215;Laerm;45943;53.148;8.204;2023-03-14T13:35:23;61.06;47.90;84.63;;
49215;Laerm;45943;53.148;8.204;2023-03-14T13:38:00;61.58;51.86;74.27;;
49215;Laerm;45943;53.148;8.204;2023-03-14T13:40:33;59.18;51.27;73.77;;
49215;Laerm;45943;53.148;8.204;2023-03-14T13:43:30;59.25;51.39;79.17;;
49215;Laerm;45943;53.148;8.204;2023-03-14T13:46:10;57.83;48.19;72.78;;
49215;Laerm;45943;53.148;8.204;2023-03-14T13:49:00;58.85;50.45;76.20;;
49215;Laerm;45943;53.148;8.204;2023-03-14T13:51:27;58.76;48.15;77.27;;
49215;Laerm;45943;53.148;8.204;2023-03-14T13:53:57;57.90;50.69;73.48;;
49215;Laerm;45943;53.148;8.204;2023-03-14T13:56:27;56.99;50.63;73.30;;
49215;Laerm;45943;53.148;8.204;2023-03-14T13:58:53;58.20;51.07;76.58;;
49215;Laerm;45943;53.148;8.204;2023-03-14T14:01:23;56.95;45.03;67.24;;
49215;Laerm;45943;53.148;8.204;2023-03-14T14:03:52;58.01;45.40;76.04;;
49215;Laerm;45943;53.148;8.204;2023-03-14T14:08:55;57.13;45.90;74.04;;
49215;Laerm;45943;53.148;8.204;2023-03-14T14:11:42;55.40;45.43;70.26;;
49215;Laerm;45943;53.148;8.204;2023-03-14T14:14:13;58.93;45.47;71.27;;
49215;Laerm;45943;53.148;8.204;2023-03-14T14:16:41;56.43;45.36;67.92;;
49215;Laerm;45943;53.148;8.204;2023-03-14T14:19:09;57.31;46.17;68.90;;
49215;Laerm;45943;53.148;8.204;2023-03-14T14:21:35;55.99;44.67;73.55;;
49215;Laerm;45943;53.148;8.204;2023-03-14T14:24:01;55.18;45.14;71.23;;
49215;Laerm;45943;53.148;8.204;2023-03-14T14:26:27;54.66;44.95;70.28;;
49215;Laerm;45943;53.148;8.204;2023-03-14T14:29:01;54.92;45.07;69.22;;
49215;Laerm;45943;53.148;8.204;2023-03-14T14:31:28;57.77;45.33;66.74;;
49215;Laerm;45943;53.148;8.204;2023-03-14T14:33:56;62.99;51.61;78.98;;
49215;Laerm;45943;53.148;8.204;2023-03-14T14:36:39;56.41;51.30;68.45;;
49215;Laerm;45943;53.148;8.204;2023-03-14T14:39:26;62.26;47.24;73.23;;
49215;Laerm;45943;53.148;8.204;2023-03-14T14:41:54;58.44;45.18;74.50;;
49215;Laerm;45943;53.148;8.204;2023-03-14T14:44:32;56.03;44.63;68.59;;
49215;Laerm;45943;53.148;8.204;2023-03-14T14:47:02;54.44;44.23;69.70;;
49215;Laerm;45943;53.148;8.204;2023-03-14T14:49:31;55.90;44.50;74.08;;